Viimsi — ES2084 — position and weather

sailwx.info

Track history (hours):
 
Tides and Currents Weather Stations Pressure Air Temp Water Temp Dewpoint Dewpoint Depression Visibility Wind Speed Wind Dir Waves Ship Positions

Viimsi

Last reported at 2016-Jun-29 17:33 UTC. Time now 2016-Jun-29 18:21 UTC.
Position N 59°30' E 024°39'.

Length 78 m; draft 5 m.

Type: Ship. MMSI: 276297000.

Date/timePositionNaut miles runAvg speedWind from/ knotsBaromVisibWave heightAir tempDewpointWater temp
2016-Jun-29 17:33N 59°30' E 024°39'22 9.5
2016-Jun-29 15:15N 59°23' E 023°58'2 1.4
2016-Jun-29 14:07N 59°22' E 023°56'0 0.0
2016-Jun-29 13:33N 59°22' E 023°56'0 0.0
2016-Jun-29 12:32N 59°22' E 023°56'0 0.0
2016-Jun-29 11:26N 59°22' E 023°56'3 0.2
2016-Jun-28 22:21N 59°24' E 024°00'8 9.8
2016-Jun-28 21:29N 59°29' E 024°15'9 4.0
2016-Jun-28 19:13N 59°30' E 024°32'0 0.0
2016-Jun-28 18:33N 59°30' E 024°32'0 0.0
2016-Jun-28 17:32N 59°29' E 024°32'6 2.0
2016-Jun-28 14:33N 59°29' E 024°44'1 1.3
2016-Jun-28 13:33N 59°28' E 024°43'0 0.0
2016-Jun-28 12:33N 59°28' E 024°43'0 0.0
2016-Jun-28 11:33N 59°28' E 024°43'0 0.0
2016-Jun-28 10:33N 59°28' E 024°43'0 0.0
2016-Jun-28 09:33N 59°28' E 024°43'0 0.0
2016-Jun-28 08:33N 59°28' E 024°43'3 3.1
2016-Jun-28 07:33N 59°30' E 024°39'4 1.0
2016-Jun-28 03:27N 59°29' E 024°31'6 6.8
2016-Jun-28 02:33N 59°30' E 024°43'3 2.8
2016-Jun-28 01:33N 59°30' E 024°49'0 0.0
2016-Jun-28 00:33N 59°30' E 024°49'0 0.0
2016-Jun-27 23:33N 59°30' E 024°49'0 0.0
2016-Jun-27 22:33N 59°30' E 024°49'0 0.0
2016-Jun-27 21:33N 59°30' E 024°49'0 0.0
2016-Jun-27 20:33N 59°30' E 024°49'0 0.0
2016-Jun-27 19:33N 59°30' E 024°49'7 6.9
2016-Jun-27 18:33N 59°30' E 024°35'2 0.5
2016-Jun-27 15:12N 59°29' E 024°32'0 0.1
2016-Jun-27 13:24N 59°29' E 024°32'5 6.2
2016-Jun-27 12:33N 59°30' E 024°42'2 2.4
2016-Jun-27 11:33N 59°28' E 024°43'0 0.4
2016-Jun-27 10:33N 59°28' E 024°44'8 7.3
2016-Jun-27 09:31N 59°31' E 024°31'1 0.1
2016-Jun-27 04:33N 59°31' E 024°30'0 0.0
2016-Jun-27 02:04N 59°31' E 024°30'0 0.1
2016-Jun-26 22:33N 59°31' E 024°31'0 0.1
2016-Jun-26 21:33N 59°31' E 024°31'0 0.0
2016-Jun-26 20:33N 59°31' E 024°31'8 8.4
2016-Jun-26 19:33N 59°30' E 024°47'1 0.9
2016-Jun-26 18:33N 59°30' E 024°49'0 0.0
2016-Jun-26 17:33N 59°30' E 024°49'0 0.0
2016-Jun-26 16:33N 59°30' E 024°49'0 0.0
2016-Jun-26 15:34N 59°30' E 024°49'0 0.0
2016-Jun-26 14:33N 59°30' E 024°49'0 0.0
2016-Jun-26 13:33N 59°30' E 024°49'0 0.4
2016-Jun-26 12:33N 59°30' E 024°48'8 8.1
2016-Jun-26 11:33N 59°37' E 024°41'4 3.6
2016-Jun-26 10:33N 59°36' E 024°48'0 0.0
2016-Jun-26 09:33N 59°36' E 024°48'0 0.0
2016-Jun-26 08:33N 59°36' E 024°48'1 0.6
2016-Jun-26 07:33N 59°35' E 024°49'0 0.4
2016-Jun-26 06:33N 59°35' E 024°49'0 0.0
2016-Jun-26 05:33N 59°35' E 024°49'0 0.0
2016-Jun-26 04:33N 59°35' E 024°49'0 0.0
2016-Jun-26 03:33N 59°35' E 024°49'0 0.0
2016-Jun-26 02:32N 59°35' E 024°49'0 0.0
2016-Jun-26 01:33N 59°35' E 024°49'0 0.1
2016-Jun-26 00:32N 59°35' E 024°49'0 0.5
2016-Jun-25 23:33N 59°35' E 024°48'0 0.0
2016-Jun-25 22:33N 59°35' E 024°48'0 0.0
2016-Jun-25 21:33N 59°35' E 024°48'0 0.0
2016-Jun-25 20:33N 59°35' E 024°48'0 0.0
2016-Jun-25 19:33N 59°35' E 024°48'2 1.7
2016-Jun-25 18:33N 59°37' E 024°47'6 5.8
2016-Jun-25 17:33N 59°31' E 024°46'2 1.6
2016-Jun-25 16:33N 59°30' E 024°49'0 0.0
2016-Jun-25 15:33N 59°30' E 024°49'0 0.0
2016-Jun-25 14:33N 59°30' E 024°49'0 0.0
2016-Jun-25 13:31N 59°30' E 024°49'0 0.0
2016-Jun-25 12:32N 59°30' E 024°49'0 0.0
2016-Jun-25 11:33N 59°30' E 024°49'0 0.0
2016-Jun-25 10:31N 59°30' E 024°49'0 0.0
2016-Jun-25 09:29N 59°30' E 024°49'0 0.0
2016-Jun-25 08:32N 59°30' E 024°49'0 0.0
2016-Jun-25 07:30N 59°30' E 024°49'0 0.0
2016-Jun-25 06:33N 59°30' E 024°49'4 3.6
2016-Jun-25 05:31N 59°28' E 024°43'0 0.0
2016-Jun-25 04:33N 59°28' E 024°43'0 0.0
2016-Jun-25 03:33N 59°28' E 024°43'0 0.0
2016-Jun-25 02:32N 59°28' E 024°43'0 0.0
2016-Jun-25 01:34N 59°28' E 024°43'0 0.0
2016-Jun-25 00:33N 59°28' E 024°43'0 0.0
2016-Jun-24 23:34N 59°28' E 024°43'0 0.0
2016-Jun-24 22:33N 59°28' E 024°43'0 0.0
2016-Jun-24 21:34N 59°28' E 024°43'0 0.0
2016-Jun-24 20:34N 59°28' E 024°43'0 0.0
2016-Jun-24 19:34N 59°28' E 024°43'0 0.0
2016-Jun-24 18:34N 59°28' E 024°43'0 0.0
2016-Jun-24 17:33N 59°28' E 024°43'0 0.0
2016-Jun-24 16:34N 59°28' E 024°43'0 0.0
2016-Jun-24 15:34N 59°28' E 024°43'0 0.0
2016-Jun-24 14:33N 59°28' E 024°43'0 0.0
2016-Jun-24 13:34N 59°28' E 024°43'0 0.0
2016-Jun-24 12:34N 59°28' E 024°43'0 0.0
2016-Jun-24 11:34N 59°28' E 024°43'0 0.0
2016-Jun-24 10:34N 59°28' E 024°43'0 0.0
2016-Jun-24 09:34N 59°28' E 024°43'0 0.0
2016-Jun-24 08:34N 59°28' E 024°43'0 0.0
2016-Jun-24 07:33N 59°28' E 024°43'4 3.9
2016-Jun-24 06:33N 59°30' E 024°37'3 1.0
2016-Jun-24 03:28N 59°31' E 024°31'2 2.1
2016-Jun-24 02:31N 59°29' E 024°32'0 0.1
2016-Jun-24 01:33N 59°29' E 024°32'0 0.0
2016-Jun-24 00:33N 59°29' E 024°32'8 7.6
2016-Jun-23 23:33N 59°35' E 024°40'4 4.2
2016-Jun-23 22:33N 59°35' E 024°49'0 0.0
2016-Jun-23 21:34N 59°35' E 024°49'0 0.0
2016-Jun-23 20:33N 59°35' E 024°49'0 0.0
2016-Jun-23 19:33N 59°35' E 024°49'0 0.0
2016-Jun-23 18:33N 59°35' E 024°49'0 0.0
2016-Jun-23 17:33N 59°35' E 024°49'0 0.0
2016-Jun-23 16:32N 59°35' E 024°49'3 2.7
2016-Jun-23 15:32N 59°34' E 024°53'3 0.8
2016-Jun-23 11:33N 59°36' E 024°49'1010.0
2016-Jun-23 10:34N 59°37' E 024°30'21 6.5
2016-Jun-23 07:14N 59°20' E 024°04'0 0.0
2016-Jun-23 05:07N 59°20' E 024°04'0 0.0
2016-Jun-23 04:22N 59°20' E 024°04'0 0.0
2016-Jun-23 03:33N 59°20' E 024°04'0 0.0
2016-Jun-23 02:33N 59°20' E 024°04'0 0.0
2016-Jun-23 01:23N 59°20' E 024°04'0 0.0
2016-Jun-23 00:33N 59°20' E 024°04'4 3.1
2016-Jun-22 23:12N 59°24' E 024°01'16 9.1
2016-Jun-22 21:27N 59°30' E 024°29'2 1.9
2016-Jun-22 20:31N 59°29' E 024°32'0 0.0
2016-Jun-22 19:33N 59°29' E 024°32'2 1.2
2016-Jun-22 17:33N 59°28' E 024°36'1 1.3
2016-Jun-22 16:33N 59°28' E 024°39'0 0.0
2016-Jun-22 15:33N 59°28' E 024°39'0 0.0
2016-Jun-22 14:33N 59°28' E 024°39'0 0.0
2016-Jun-22 13:32N 59°28' E 024°39'2 2.0
2016-Jun-22 12:34N 59°30' E 024°40'5 4.6
2016-Jun-22 11:33N 59°30' E 024°49'0 0.0
2016-Jun-22 10:34N 59°30' E 024°49'0 0.0
2016-Jun-22 09:33N 59°30' E 024°49'0 0.0
2016-Jun-22 08:33N 59°30' E 024°49'0 0.0
2016-Jun-22 07:31N 59°30' E 024°49'0 0.0
2016-Jun-22 06:32N 59°30' E 024°49'0 0.0
2016-Jun-22 05:34N 59°30' E 024°49'0 0.0
2016-Jun-22 04:33N 59°30' E 024°49'0 0.0
2016-Jun-22 03:33N 59°30' E 024°49'0 0.0
2016-Jun-22 02:33N 59°30' E 024°49'0 0.0
2016-Jun-22 01:33N 59°30' E 024°49'0 0.0
2016-Jun-22 00:34N 59°30' E 024°49'2 2.2
2016-Jun-21 23:33N 59°30' E 024°44'8 7.7
2016-Jun-21 22:34N 59°38' E 024°46'9 2.7
2016-Jun-21 19:06N 59°31' E 024°57'610.2
2016-Jun-21 18:33N 59°35' E 024°50'1 1.0
2016-Jun-21 17:33N 59°36' E 024°48'0 0.0
2016-Jun-21 16:33N 59°36' E 024°48'0 0.0
2016-Jun-21 15:33N 59°36' E 024°48'0 0.0
2016-Jun-21 14:33N 59°36' E 024°48'0 0.1
2016-Jun-21 13:33N 59°36' E 024°48'0 0.1
2016-Jun-21 12:34N 59°36' E 024°48'2 0.3
2016-Jun-21 06:33N 59°35' E 024°52'12 5.7
2016-Jun-21 04:31N 59°29' E 024°32'0 0.0
2016-Jun-20 18:33N 59°29' E 024°31'0 0.1
2016-Jun-20 17:27N 59°29' E 024°31'0 0.0
2016-Jun-20 15:15N 59°29' E 024°31'5 7.8
2016-Jun-20 14:33N 59°30' E 024°41'3 2.7
2016-Jun-20 13:33N 59°28' E 024°43'0 0.0
2016-Jun-20 12:33N 59°28' E 024°43'0 0.0
2016-Jun-20 11:33N 59°28' E 024°43'0 0.0
2016-Jun-20 10:33N 59°28' E 024°43'0 0.0
2016-Jun-20 09:33N 59°28' E 024°43'0 0.0
2016-Jun-20 08:33N 59°28' E 024°43'0 0.2
2016-Jun-20 07:33N 59°28' E 024°43'0 0.0
2016-Jun-20 06:32N 59°28' E 024°43'0 0.1
2016-Jun-20 05:33N 59°28' E 024°43'0 0.0
2016-Jun-20 04:33N 59°28' E 024°43'0 0.0
2016-Jun-20 03:33N 59°28' E 024°43'0 0.0
2016-Jun-20 02:33N 59°28' E 024°43'1 1.3
2016-Jun-20 01:34N 59°29' E 024°44'  
Track history (hours):
 
Tides and Currents Weather Stations Pressure Air Temp Water Temp Dewpoint Dewpoint Depression Visibility Wind Speed Wind Dir Waves Ship Positions

Viimsi

Last reported at 2016-Jun-29 17:33 UTC. Time now 2016-Jun-29 18:21 UTC.
Position N 59°30' E 024°39'.

Length 78 m; draft 5 m.

Type: Ship. MMSI: 276297000.

Date/timePositionNaut miles runAvg speedWind from/ knotsBaromVisibWave heightAir tempDewpointWater temp
2016-Jun-29 17:33N 59°30' E 024°39'22 9.5
2016-Jun-29 15:15N 59°23' E 023°58'2 1.4
2016-Jun-29 14:07N 59°22' E 023°56'0 0.0
2016-Jun-29 13:33N 59°22' E 023°56'0 0.0
2016-Jun-29 12:32N 59°22' E 023°56'0 0.0
2016-Jun-29 11:26N 59°22' E 023°56'3 0.2
2016-Jun-28 22:21N 59°24' E 024°00'8 9.8
2016-Jun-28 21:29N 59°29' E 024°15'9 4.0
2016-Jun-28 19:13N 59°30' E 024°32'0 0.0
2016-Jun-28 18:33N 59°30' E 024°32'0 0.0
2016-Jun-28 17:32N 59°29' E 024°32'6 2.0
2016-Jun-28 14:33N 59°29' E 024°44'1 1.3
2016-Jun-28 13:33N 59°28' E 024°43'0 0.0
2016-Jun-28 12:33N 59°28' E 024°43'0 0.0
2016-Jun-28 11:33N 59°28' E 024°43'0 0.0
2016-Jun-28 10:33N 59°28' E 024°43'0 0.0
2016-Jun-28 09:33N 59°28' E 024°43'0 0.0
2016-Jun-28 08:33N 59°28' E 024°43'3 3.1
2016-Jun-28 07:33N 59°30' E 024°39'4 1.0
2016-Jun-28 03:27N 59°29' E 024°31'6 6.8
2016-Jun-28 02:33N 59°30' E 024°43'3 2.8
2016-Jun-28 01:33N 59°30' E 024°49'0 0.0
2016-Jun-28 00:33N 59°30' E 024°49'0 0.0
2016-Jun-27 23:33N 59°30' E 024°49'0 0.0
2016-Jun-27 22:33N 59°30' E 024°49'0 0.0
2016-Jun-27 21:33N 59°30' E 024°49'0 0.0
2016-Jun-27 20:33N 59°30' E 024°49'0 0.0
2016-Jun-27 19:33N 59°30' E 024°49'7 6.9
2016-Jun-27 18:33N 59°30' E 024°35'2 0.5
2016-Jun-27 15:12N 59°29' E 024°32'0 0.1
2016-Jun-27 13:24N 59°29' E 024°32'5 6.2
2016-Jun-27 12:33N 59°30' E 024°42'2 2.4
2016-Jun-27 11:33N 59°28' E 024°43'0 0.4
2016-Jun-27 10:33N 59°28' E 024°44'8 7.3
2016-Jun-27 09:31N 59°31' E 024°31'1 0.1
2016-Jun-27 04:33N 59°31' E 024°30'0 0.0
2016-Jun-27 02:04N 59°31' E 024°30'0 0.1
2016-Jun-26 22:33N 59°31' E 024°31'0 0.1
2016-Jun-26 21:33N 59°31' E 024°31'0 0.0
2016-Jun-26 20:33N 59°31' E 024°31'8 8.4
2016-Jun-26 19:33N 59°30' E 024°47'1 0.9
2016-Jun-26 18:33N 59°30' E 024°49'0 0.0
2016-Jun-26 17:33N 59°30' E 024°49'0 0.0
2016-Jun-26 16:33N 59°30' E 024°49'0 0.0
2016-Jun-26 15:34N 59°30' E 024°49'0 0.0
2016-Jun-26 14:33N 59°30' E 024°49'0 0.0
2016-Jun-26 13:33N 59°30' E 024°49'0 0.4
2016-Jun-26 12:33N 59°30' E 024°48'8 8.1
2016-Jun-26 11:33N 59°37' E 024°41'4 3.6
2016-Jun-26 10:33N 59°36' E 024°48'0 0.0
2016-Jun-26 09:33N 59°36' E 024°48'0 0.0
2016-Jun-26 08:33N 59°36' E 024°48'1 0.6
2016-Jun-26 07:33N 59°35' E 024°49'0 0.4
2016-Jun-26 06:33N 59°35' E 024°49'0 0.0
2016-Jun-26 05:33N 59°35' E 024°49'0 0.0
2016-Jun-26 04:33N 59°35' E 024°49'0 0.0
2016-Jun-26 03:33N 59°35' E 024°49'0 0.0
2016-Jun-26 02:32N 59°35' E 024°49'0 0.0
2016-Jun-26 01:33N 59°35' E 024°49'0 0.1
2016-Jun-26 00:32N 59°35' E 024°49'0 0.5
2016-Jun-25 23:33N 59°35' E 024°48'0 0.0
2016-Jun-25 22:33N 59°35' E 024°48'0 0.0
2016-Jun-25 21:33N 59°35' E 024°48'0 0.0
2016-Jun-25 20:33N 59°35' E 024°48'0 0.0
2016-Jun-25 19:33N 59°35' E 024°48'2 1.7
2016-Jun-25 18:33N 59°37' E 024°47'6 5.8
2016-Jun-25 17:33N 59°31' E 024°46'2 1.6
2016-Jun-25 16:33N 59°30' E 024°49'0 0.0
2016-Jun-25 15:33N 59°30' E 024°49'0 0.0
2016-Jun-25 14:33N 59°30' E 024°49'0 0.0
2016-Jun-25 13:31N 59°30' E 024°49'0 0.0
2016-Jun-25 12:32N 59°30' E 024°49'0 0.0
2016-Jun-25 11:33N 59°30' E 024°49'0 0.0
2016-Jun-25 10:31N 59°30' E 024°49'0 0.0
2016-Jun-25 09:29N 59°30' E 024°49'0 0.0
2016-Jun-25 08:32N 59°30' E 024°49'0 0.0
2016-Jun-25 07:30N 59°30' E 024°49'0 0.0
2016-Jun-25 06:33N 59°30' E 024°49'4 3.6
2016-Jun-25 05:31N 59°28' E 024°43'0 0.0
2016-Jun-25 04:33N 59°28' E 024°43'0 0.0
2016-Jun-25 03:33N 59°28' E 024°43'0 0.0
2016-Jun-25 02:32N 59°28' E 024°43'0 0.0
2016-Jun-25 01:34N 59°28' E 024°43'0 0.0
2016-Jun-25 00:33N 59°28' E 024°43'0 0.0
2016-Jun-24 23:34N 59°28' E 024°43'0 0.0
2016-Jun-24 22:33N 59°28' E 024°43'0 0.0
2016-Jun-24 21:34N 59°28' E 024°43'0 0.0
2016-Jun-24 20:34N 59°28' E 024°43'0 0.0
2016-Jun-24 19:34N 59°28' E 024°43'0 0.0
2016-Jun-24 18:34N 59°28' E 024°43'0 0.0
2016-Jun-24 17:33N 59°28' E 024°43'0 0.0
2016-Jun-24 16:34N 59°28' E 024°43'0 0.0
2016-Jun-24 15:34N 59°28' E 024°43'0 0.0
2016-Jun-24 14:33N 59°28' E 024°43'0 0.0
2016-Jun-24 13:34N 59°28' E 024°43'0 0.0
2016-Jun-24 12:34N 59°28' E 024°43'0 0.0
2016-Jun-24 11:34N 59°28' E 024°43'0 0.0
2016-Jun-24 10:34N 59°28' E 024°43'0 0.0
2016-Jun-24 09:34N 59°28' E 024°43'0 0.0
2016-Jun-24 08:34N 59°28' E 024°43'0 0.0
2016-Jun-24 07:33N 59°28' E 024°43'4 3.9
2016-Jun-24 06:33N 59°30' E 024°37'3 1.0
2016-Jun-24 03:28N 59°31' E 024°31'2 2.1
2016-Jun-24 02:31N 59°29' E 024°32'0 0.1
2016-Jun-24 01:33N 59°29' E 024°32'0 0.0
2016-Jun-24 00:33N 59°29' E 024°32'8 7.6
2016-Jun-23 23:33N 59°35' E 024°40'4 4.2
2016-Jun-23 22:33N 59°35' E 024°49'0 0.0
2016-Jun-23 21:34N 59°35' E 024°49'0 0.0
2016-Jun-23 20:33N 59°35' E 024°49'0 0.0
2016-Jun-23 19:33N 59°35' E 024°49'0 0.0
2016-Jun-23 18:33N 59°35' E 024°49'0 0.0
2016-Jun-23 17:33N 59°35' E 024°49'0 0.0
2016-Jun-23 16:32N 59°35' E 024°49'3 2.7
2016-Jun-23 15:32N 59°34' E 024°53'3 0.8
2016-Jun-23 11:33N 59°36' E 024°49'1010.0
2016-Jun-23 10:34N 59°37' E 024°30'21 6.5
2016-Jun-23 07:14N 59°20' E 024°04'0 0.0
2016-Jun-23 05:07N 59°20' E 024°04'0 0.0
2016-Jun-23 04:22N 59°20' E 024°04'0 0.0
2016-Jun-23 03:33N 59°20' E 024°04'0 0.0
2016-Jun-23 02:33N 59°20' E 024°04'0 0.0
2016-Jun-23 01:23N 59°20' E 024°04'0 0.0
2016-Jun-23 00:33N 59°20' E 024°04'4 3.1
2016-Jun-22 23:12N 59°24' E 024°01'16 9.1
2016-Jun-22 21:27N 59°30' E 024°29'2 1.9
2016-Jun-22 20:31N 59°29' E 024°32'0 0.0
2016-Jun-22 19:33N 59°29' E 024°32'2 1.2
2016-Jun-22 17:33N 59°28' E 024°36'1 1.3
2016-Jun-22 16:33N 59°28' E 024°39'0 0.0
2016-Jun-22 15:33N 59°28' E 024°39'0 0.0
2016-Jun-22 14:33N 59°28' E 024°39'0 0.0
2016-Jun-22 13:32N 59°28' E 024°39'2 2.0
2016-Jun-22 12:34N 59°30' E 024°40'5 4.6
2016-Jun-22 11:33N 59°30' E 024°49'0 0.0
2016-Jun-22 10:34N 59°30' E 024°49'0 0.0
2016-Jun-22 09:33N 59°30' E 024°49'0 0.0
2016-Jun-22 08:33N 59°30' E 024°49'0 0.0
2016-Jun-22 07:31N 59°30' E 024°49'0 0.0
2016-Jun-22 06:32N 59°30' E 024°49'0 0.0
2016-Jun-22 05:34N 59°30' E 024°49'0 0.0
2016-Jun-22 04:33N 59°30' E 024°49'0 0.0
2016-Jun-22 03:33N 59°30' E 024°49'0 0.0
2016-Jun-22 02:33N 59°30' E 024°49'0 0.0
2016-Jun-22 01:33N 59°30' E 024°49'0 0.0
2016-Jun-22 00:34N 59°30' E 024°49'2 2.2
2016-Jun-21 23:33N 59°30' E 024°44'8 7.7
2016-Jun-21 22:34N 59°38' E 024°46'9 2.7
2016-Jun-21 19:06N 59°31' E 024°57'610.2
2016-Jun-21 18:33N 59°35' E 024°50'1 1.0
2016-Jun-21 17:33N 59°36' E 024°48'0 0.0
2016-Jun-21 16:33N 59°36' E 024°48'0 0.0
2016-Jun-21 15:33N 59°36' E 024°48'0 0.0
2016-Jun-21 14:33N 59°36' E 024°48'0 0.1
2016-Jun-21 13:33N 59°36' E 024°48'0 0.1
2016-Jun-21 12:34N 59°36' E 024°48'2 0.3
2016-Jun-21 06:33N 59°35' E 024°52'12 5.7
2016-Jun-21 04:31N 59°29' E 024°32'0 0.0
2016-Jun-20 18:33N 59°29' E 024°31'0 0.1
2016-Jun-20 17:27N 59°29' E 024°31'0 0.0
2016-Jun-20 15:15N 59°29' E 024°31'5 7.8
2016-Jun-20 14:33N 59°30' E 024°41'3 2.7
2016-Jun-20 13:33N 59°28' E 024°43'0 0.0
2016-Jun-20 12:33N 59°28' E 024°43'0 0.0
2016-Jun-20 11:33N 59°28' E 024°43'0 0.0
2016-Jun-20 10:33N 59°28' E 024°43'0 0.0
2016-Jun-20 09:33N 59°28' E 024°43'0 0.0
2016-Jun-20 08:33N 59°28' E 024°43'0 0.2
2016-Jun-20 07:33N 59°28' E 024°43'0 0.0
2016-Jun-20 06:32N 59°28' E 024°43'0 0.1
2016-Jun-20 05:33N 59°28' E 024°43'0 0.0
2016-Jun-20 04:33N 59°28' E 024°43'0 0.0
2016-Jun-20 03:33N 59°28' E 024°43'0 0.0
2016-Jun-20 02:33N 59°28' E 024°43'1 1.3
2016-Jun-20 01:34N 59°29' E 024°44'  

Dump ship's entire track history